Terminal Aerodrome Forecast
Issued by NWS Billings, MT

Home | Current Version | Previous Version | Text Only | Print | Product List | Glossary On
Versions: 1 2 3 4 5 6 7 8 9 10 11 12 13 14 15 16 17 18 19 20 21 22
000
FTUS45 KBYZ 251124
TAFSHR
TAF
KSHR 251124Z 2512/2612 28010KT P6SM VCSH SCT025 OVC035
     FM251500 28008KT P6SM VCSH BKN035
     FM252100 28006KT P6SM VCSH SCT025 BKN040
     FM260000 25005KT P6SM OVC050=

USA.gov is the U.S. government's official web portal to all federal, state and local government web resources and services.